Time;durP1;ratioP1;P1;durP2;ratioP2;P2;SDS_P1;SDS_P2;PMS_P1;PMS_P2;Temp;Humidity;BMP_temperature;BMP_pressure;BME280_temperature;BME280_humidity;BME280_pressure;Samples;Min_cycle;Max_cycle;Signal;HPM_P1;HPM_P2
2022/07/06 00:02:01;;;;;;;7.85;3.00;;;;;;;;;;5076626;28;20028;-72
2022/07/06 00:04:27;;;;;;;7.32;3.25;;;;;;;;;;5080537;28;20103;-72
2022/07/06 00:06:52;;;;;;;6.55;2.70;;;;;;;;;;5074621;28;20416;-72
2022/07/06 00:09:17;;;;;;;7.78;2.95;;;;;;;;;;5090443;28;20024;-72
2022/07/06 00:11:43;;;;;;;6.55;2.90;;;;;;;;;;5076311;28;20357;-72
2022/07/06 00:14:08;;;;;;;8.73;2.95;;;;;;;;;;5078384;28;20107;-72
2022/07/06 00:16:33;;;;;;;9.60;3.42;;;;;;;;;;5075403;28;20032;-72
2022/07/06 00:18:59;;;;;;;6.13;3.00;;;;;;;;;;5076015;28;20009;-71
2022/07/06 00:21:24;;;;;;;13.73;3.20;;;;;;;;;;5067050;28;20040;-70
2022/07/06 00:23:51;;;;;;;8.57;3.00;;;;;;;;;;5079924;28;20119;-72
2022/07/06 00:26:16;;;;;;;7.32;2.97;;;;;;;;;;5076996;28;20024;-72
2022/07/06 00:28:42;;;;;;;5.97;2.75;;;;;;;;;;5072979;28;20127;-72
2022/07/06 00:31:07;;;;;;;5.78;2.92;;;;;;;;;;5074054;28;20040;-71
2022/07/06 00:33:32;;;;;;;7.13;2.92;;;;;;;;;;5078272;28;20020;-72
2022/07/06 00:35:57;;;;;;;6.65;3.17;;;;;;;;;;5079923;28;20040;-72
2022/07/06 00:38:23;;;;;;;6.80;3.20;;;;;;;;;;5080979;28;20041;-72
2022/07/06 00:40:48;;;;;;;8.82;3.15;;;;;;;;;;5086849;28;20471;-72
2022/07/06 00:43:13;;;;;;;6.78;3.05;;;;;;;;;;5089618;28;20117;-72
2022/07/06 00:45:38;;;;;;;10.48;2.92;;;;;;;;;;5061281;28;20025;-72
2022/07/06 00:48:04;;;;;;;7.43;2.67;;;;;;;;;;5077975;28;20024;-71
2022/07/06 00:50:30;;;;;;;8.10;3.22;;;;;;;;;;5075399;28;20024;-71
2022/07/06 00:52:56;;;;;;;7.28;3.00;;;;;;;;;;5075635;28;20052;-72
2022/07/06 00:55:23;;;;;;;12.32;3.50;;;;;;;;;;5073908;28;20035;-71
2022/07/06 00:57:48;;;;;;;8.02;3.03;;;;;;;;;;5072422;28;20518;-71
2022/07/06 01:00:15;;;;;;;8.27;2.88;;;;;;;;;;5080604;28;20016;-72
2022/07/06 01:02:41;;;;;;;8.93;3.35;;;;;;;;;;5075125;28;20492;-71
2022/07/06 01:05:07;;;;;;;9.60;2.78;;;;;;;;;;5073796;28;20063;-72
2022/07/06 01:07:33;;;;;;;8.60;2.78;;;;;;;;;;5073144;28;20028;-72
2022/07/06 01:09:58;;;;;;;8.18;2.80;;;;;;;;;;5085325;28;20032;-72
2022/07/06 01:12:23;;;;;;;5.75;2.85;;;;;;;;;;5089531;28;20043;-72
2022/07/06 01:14:49;;;;;;;7.18;2.83;;;;;;;;;;5094233;28;20066;-72
2022/07/06 01:17:15;;;;;;;7.63;2.83;;;;;;;;;;5076456;28;20050;-72
2022/07/06 01:19:40;;;;;;;7.82;3.15;;;;;;;;;;5081880;28;20025;-72
2022/07/06 01:22:05;;;;;;;5.85;2.63;;;;;;;;;;5078099;28;20175;-72
2022/07/06 01:24:31;;;;;;;7.15;3.00;;;;;;;;;;5081347;28;20091;-72
2022/07/06 01:26:56;;;;;;;7.47;2.88;;;;;;;;;;5078010;28;20090;-72
2022/07/06 01:29:22;;;;;;;6.78;2.95;;;;;;;;;;5089040;28;20078;-72
2022/07/06 01:31:48;;;;;;;7.65;2.97;;;;;;;;;;5064293;28;20020;-72
2022/07/06 01:34:14;;;;;;;7.00;2.88;;;;;;;;;;5087290;28;20024;-72
2022/07/06 01:36:39;;;;;;;6.97;2.65;;;;;;;;;;5080413;28;20099;-71
2022/07/06 01:39:04;;;;;;;5.53;2.30;;;;;;;;;;5080693;28;20123;-71
2022/07/06 01:41:30;;;;;;;5.40;2.70;;;;;;;;;;5082134;28;20072;-71
2022/07/06 01:43:55;;;;;;;6.05;2.40;;;;;;;;;;5080946;28;20025;-71
2022/07/06 01:46:20;;;;;;;6.30;2.90;;;;;;;;;;5067661;28;20032;-72
2022/07/06 01:48:46;;;;;;;7.30;2.92;;;;;;;;;;5088223;28;20043;-71
2022/07/06 01:51:11;;;;;;;9.60;3.10;;;;;;;;;;5075817;28;20138;-71
2022/07/06 01:53:37;;;;;;;5.95;2.30;;;;;;;;;;5080845;28;20021;-72
2022/07/06 01:56:02;;;;;;;5.88;2.45;;;;;;;;;;5082511;28;20028;-72
2022/07/06 01:58:27;;;;;;;5.00;2.22;;;;;;;;;;5084549;28;20048;-72
2022/07/06 02:00:53;;;;;;;6.60;2.92;;;;;;;;;;5087670;28;20104;-72
2022/07/06 02:03:18;;;;;;;8.40;3.00;;;;;;;;;;5065560;28;20082;-72
2022/07/06 02:05:43;;;;;;;5.97;2.80;;;;;;;;;;5076137;28;20478;-72
2022/07/06 02:08:08;;;;;;;6.85;2.97;;;;;;;;;;5078029;28;20012;-72
2022/07/06 02:10:34;;;;;;;6.22;2.78;;;;;;;;;;5076695;28;20024;-71
2022/07/06 02:12:59;;;;;;;10.82;3.13;;;;;;;;;;5087189;28;20405;-71
2022/07/06 02:15:24;;;;;;;6.40;3.00;;;;;;;;;;5082780;28;20468;-71
2022/07/06 02:17:50;;;;;;;7.30;3.08;;;;;;;;;;5067354;28;20529;-70
2022/07/06 02:20:15;;;;;;;6.53;2.67;;;;;;;;;;5077525;28;20086;-71
2022/07/06 02:22:40;;;;;;;4.93;2.40;;;;;;;;;;5075702;28;20028;-71
2022/07/06 02:25:06;;;;;;;6.25;2.67;;;;;;;;;;5081833;28;20036;-70
2022/07/06 02:27:31;;;;;;;6.82;2.40;;;;;;;;;;5075025;28;20036;-71
2022/07/06 02:29:56;;;;;;;7.22;2.85;;;;;;;;;;5090540;28;20039;-71
2022/07/06 02:32:22;;;;;;;8.05;2.60;;;;;;;;;;5075341;28;20036;-71
2022/07/06 02:34:47;;;;;;;5.90;2.38;;;;;;;;;;5081378;28;20028;-70
2022/07/06 02:37:12;;;;;;;7.60;3.00;;;;;;;;;;5084040;28;20020;-71
2022/07/06 02:39:37;;;;;;;6.68;2.80;;;;;;;;;;5079343;28;20071;-71
2022/07/06 02:42:03;;;;;;;5.88;2.50;;;;;;;;;;5088683;28;20093;-71
2022/07/06 02:44:28;;;;;;;5.15;2.35;;;;;;;;;;5083112;28;20028;-70
2022/07/06 02:46:53;;;;;;;5.63;2.42;;;;;;;;;;5075615;28;20889;-70
2022/07/06 02:49:18;;;;;;;7.40;2.90;;;;;;;;;;5091103;28;20027;-71
2022/07/06 02:51:44;;;;;;;7.78;2.65;;;;;;;;;;5078388;28;20028;-71
2022/07/06 02:54:09;;;;;;;5.13;2.38;;;;;;;;;;5085054;28;20039;-71
2022/07/06 02:56:34;;;;;;;7.65;2.85;;;;;;;;;;5076132;28;20035;-70
2022/07/06 02:58:59;;;;;;;6.63;2.35;;;;;;;;;;5094751;28;20027;-70
2022/07/06 03:01:25;;;;;;;9.18;3.17;;;;;;;;;;5080456;28;20123;-71
2022/07/06 03:03:50;;;;;;;5.70;2.53;;;;;;;;;;5082253;28;20032;-70
2022/07/06 03:06:15;;;;;;;6.50;2.63;;;;;;;;;;5081093;28;20036;-71
2022/07/06 03:08:41;;;;;;;4.18;2.13;;;;;;;;;;5084041;28;20032;-70
2022/07/06 03:11:06;;;;;;;5.03;2.28;;;;;;;;;;5082748;28;20463;-70
2022/07/06 03:13:31;;;;;;;6.80;2.80;;;;;;;;;;5085755;28;20547;-71
2022/07/06 03:15:56;;;;;;;9.27;2.47;;;;;;;;;;5080324;28;20040;-71
2022/07/06 03:18:22;;;;;;;9.25;2.67;;;;;;;;;;5073991;28;20016;-71
2022/07/06 03:20:47;;;;;;;9.30;2.33;;;;;;;;;;5086358;28;20093;-71
2022/07/06 03:23:13;;;;;;;5.28;2.35;;;;;;;;;;5088302;28;20158;-71
2022/07/06 03:25:38;;;;;;;5.68;2.30;;;;;;;;;;5073755;28;20107;-71
2022/07/06 03:28:03;;;;;;;11.60;2.63;;;;;;;;;;5081563;28;20012;-70
2022/07/06 03:30:29;;;;;;;5.32;2.40;;;;;;;;;;5084728;28;20111;-71
2022/07/06 03:32:54;;;;;;;5.40;2.47;;;;;;;;;;5084231;28;20117;-72
2022/07/06 03:35:19;;;;;;;5.10;2.47;;;;;;;;;;5086118;28;20078;-72
2022/07/06 03:37:44;;;;;;;8.35;2.42;;;;;;;;;;5081897;28;20029;-72
2022/07/06 03:40:10;;;;;;;4.72;2.28;;;;;;;;;;5075362;28;20093;-72
2022/07/06 03:42:36;;;;;;;6.50;2.38;;;;;;;;;;5074260;28;20364;-71
2022/07/06 03:45:02;;;;;;;8.10;2.55;;;;;;;;;;5075986;28;20025;-72
2022/07/06 03:47:27;;;;;;;6.78;2.20;;;;;;;;;;5074040;28;20024;-71
2022/07/06 03:49:52;;;;;;;4.75;2.10;;;;;;;;;;5081490;28;20020;-72
2022/07/06 03:52:18;;;;;;;9.00;2.63;;;;;;;;;;5073884;28;20506;-71
2022/07/06 03:54:43;;;;;;;8.30;2.65;;;;;;;;;;5082218;28;20019;-72
2022/07/06 03:57:08;;;;;;;6.95;2.47;;;;;;;;;;5074308;28;20047;-72
2022/07/06 03:59:33;;;;;;;6.72;2.58;;;;;;;;;;5085429;28;20069;-71
2022/07/06 04:01:59;;;;;;;5.45;2.50;;;;;;;;;;5073283;28;20021;-71
2022/07/06 04:04:24;;;;;;;6.63;2.33;;;;;;;;;;5083841;28;20399;-72
2022/07/06 04:06:49;;;;;;;4.55;2.25;;;;;;;;;;5073400;28;20032;-71
2022/07/06 04:09:14;;;;;;;6.85;2.75;;;;;;;;;;5079139;28;20096;-72
2022/07/06 04:11:40;;;;;;;7.13;2.63;;;;;;;;;;5073264;28;20093;-72
2022/07/06 04:14:05;;;;;;;6.03;2.70;;;;;;;;;;5085769;28;20032;-72
2022/07/06 04:16:30;;;;;;;5.93;2.63;;;;;;;;;;5074354;28;20504;-72
2022/07/06 04:18:55;;;;;;;6.85;2.60;;;;;;;;;;5078114;28;20012;-71
2022/07/06 04:21:20;;;;;;;5.07;2.13;;;;;;;;;;5073715;28;20040;-72
2022/07/06 04:23:46;;;;;;;3.72;2.10;;;;;;;;;;5085910;28;20099;-72
2022/07/06 04:26:11;;;;;;;5.18;2.13;;;;;;;;;;5073619;28;20460;-72
2022/07/06 04:28:37;;;;;;;6.88;2.10;;;;;;;;;;5086773;28;20047;-71
2022/07/06 04:31:02;;;;;;;5.35;2.20;;;;;;;;;;5079059;28;20028;-72
2022/07/06 04:33:27;;;;;;;7.35;2.28;;;;;;;;;;5088648;28;20008;-72
2022/07/06 04:35:52;;;;;;;5.90;2.42;;;;;;;;;;5080459;28;20032;-72
2022/07/06 04:38:18;;;;;;;9.18;2.25;;;;;;;;;;5086760;28;20456;-72
2022/07/06 04:40:46;;;;;;;6.00;2.47;;;;;;;;;;5082150;28;20442;-72
2022/07/06 04:43:11;;;;;;;5.55;2.47;;;;;;;;;;5087308;28;20056;-72
2022/07/06 04:45:36;;;;;;;4.95;2.20;;;;;;;;;;5084460;28;20067;-72
2022/07/06 04:48:01;;;;;;;5.32;2.38;;;;;;;;;;5088233;28;20012;-72
2022/07/06 04:50:27;;;;;;;4.93;2.40;;;;;;;;;;5072795;28;20020;-72
2022/07/06 04:52:52;;;;;;;8.95;2.30;;;;;;;;;;5080609;28;20016;-71
2022/07/06 04:55:17;;;;;;;4.05;2.28;;;;;;;;;;5073587;28;20054;-72
2022/07/06 04:57:42;;;;;;;5.00;2.03;;;;;;;;;;5080150;28;20032;-72
2022/07/06 05:00:08;;;;;;;6.70;2.17;;;;;;;;;;5079029;28;20028;-72
2022/07/06 05:02:33;;;;;;;5.53;2.35;;;;;;;;;;5073323;28;20028;-72
2022/07/06 05:04:58;;;;;;;5.07;2.30;;;;;;;;;;5075036;28;20073;-72
2022/07/06 05:07:28;;;;;;;3.63;1.90;;;;;;;;;;5083587;28;20075;-72
2022/07/06 05:09:53;;;;;;;6.65;2.25;;;;;;;;;;5078720;28;20082;-72
2022/07/06 05:12:18;;;;;;;6.55;2.33;;;;;;;;;;5072715;28;20037;-72
2022/07/06 05:14:44;;;;;;;6.10;1.85;;;;;;;;;;5081219;28;20530;-71
2022/07/06 05:17:09;;;;;;;2.78;1.67;;;;;;;;;;5073233;28;20892;-71
2022/07/06 05:19:34;;;;;;;4.43;1.90;;;;;;;;;;5082213;28;20032;-72
2022/07/06 05:21:59;;;;;;;3.13;1.70;;;;;;;;;;5081081;28;20028;-72
2022/07/06 05:24:25;;;;;;;3.03;1.70;;;;;;;;;;5087217;28;20088;-72
2022/07/06 05:26:50;;;;;;;7.18;1.42;;;;;;;;;;5073332;28;20029;-72
2022/07/06 05:29:15;;;;;;;2.67;1.58;;;;;;;;;;5084782;28;20016;-73
2022/07/06 05:31:40;;;;;;;2.28;1.20;;;;;;;;;;5074226;28;20021;-72
2022/07/06 05:34:06;;;;;;;2.28;1.27;;;;;;;;;;5088848;28;20046;-72
2022/07/06 05:36:31;;;;;;;3.40;1.10;;;;;;;;;;5079651;28;20598;-72
2022/07/06 05:38:56;;;;;;;2.30;1.13;;;;;;;;;;5079177;28;20037;-72
2022/07/06 05:41:21;;;;;;;4.07;1.08;;;;;;;;;;5073103;28;20044;-71
2022/07/06 05:43:47;;;;;;;1.63;0.90;;;;;;;;;;5084320;28;20028;-73
2022/07/06 05:46:12;;;;;;;3.67;0.90;;;;;;;;;;5075228;28;20021;-73
2022/07/06 05:51:21;;;;;;;1.45;0.85;;;;;;;;;;5079196;28;20031;-71
2022/07/06 05:53:47;;;;;;;2.65;0.85;;;;;;;;;;5086442;28;20032;-72
2022/07/06 05:56:13;;;;;;;1.70;1.00;;;;;;;;;;5081420;28;20020;-73
2022/07/06 05:58:38;;;;;;;3.50;0.90;;;;;;;;;;5083307;28;20021;-71
2022/07/06 06:01:03;;;;;;;2.53;0.93;;;;;;;;;;5073162;28;20131;-71
2022/07/06 06:03:28;;;;;;;1.58;0.80;;;;;;;;;;5084008;28;20020;-71
2022/07/06 06:05:53;;;;;;;4.03;1.10;;;;;;;;;;5080029;28;20024;-71
2022/07/06 06:08:19;;;;;;;1.65;0.70;;;;;;;;;;5077613;28;20040;-73
2022/07/06 06:10:44;;;;;;;5.13;1.30;;;;;;;;;;5087140;28;20012;-73
2022/07/06 06:13:09;;;;;;;2.22;0.85;;;;;;;;;;5084808;28;20008;-72
2022/07/06 06:15:34;;;;;;;1.77;1.00;;;;;;;;;;5079361;28;20510;-72
2022/07/06 06:18:00;;;;;;;3.55;0.88;;;;;;;;;;5080539;28;20440;-73
2022/07/06 06:20:25;;;;;;;5.03;1.00;;;;;;;;;;5082689;28;20023;-73
2022/07/06 06:22:51;;;;;;;1.70;0.90;;;;;;;;;;5085251;28;20166;-73
2022/07/06 06:25:18;;;;;;;2.78;1.08;;;;;;;;;;5083112;28;20032;-73
2022/07/06 06:27:44;;;;;;;1.73;0.80;;;;;;;;;;5077202;28;20016;-73
2022/07/06 06:30:09;;;;;;;2.28;0.98;;;;;;;;;;5078517;28;20090;-73
2022/07/06 06:32:34;;;;;;;1.83;0.75;;;;;;;;;;5088333;28;20028;-73
2022/07/06 06:35:00;;;;;;;5.05;1.10;;;;;;;;;;5053012;28;20020;-72
2022/07/06 06:37:25;;;;;;;1.45;0.80;;;;;;;;;;5067766;28;20032;-72
2022/07/06 06:39:50;;;;;;;1.40;0.80;;;;;;;;;;5086126;28;20131;-72
2022/07/06 06:42:15;;;;;;;1.92;0.80;;;;;;;;;;5075754;28;20079;-73
2022/07/06 06:44:41;;;;;;;2.55;0.90;;;;;;;;;;5077842;28;20035;-72
2022/07/06 06:47:06;;;;;;;1.20;0.80;;;;;;;;;;5076249;28;20470;-72
2022/07/06 06:49:31;;;;;;;2.38;0.80;;;;;;;;;;5079318;28;20020;-72
2022/07/06 06:51:56;;;;;;;1.52;0.90;;;;;;;;;;5078936;28;20037;-72
2022/07/06 06:54:22;;;;;;;1.23;0.75;;;;;;;;;;5088571;28;20356;-73
2022/07/06 06:56:47;;;;;;;2.20;0.80;;;;;;;;;;5075827;28;20024;-73
2022/07/06 06:59:12;;;;;;;3.58;0.90;;;;;;;;;;5078311;28;20412;-73
2022/07/06 07:01:37;;;;;;;3.80;1.10;;;;;;;;;;5076287;28;20036;-73
2022/07/06 07:04:03;;;;;;;1.83;1.00;;;;;;;;;;5087700;28;20406;-72
2022/07/06 07:06:28;;;;;;;2.65;1.10;;;;;;;;;;5072844;28;20033;-72
2022/07/06 07:08:55;;;;;;;1.90;1.02;;;;;;;;;;5091745;28;20019;-73
2022/07/06 07:11:20;;;;;;;3.63;1.42;;;;;;;;;;5077320;28;20027;-73
2022/07/06 07:13:45;;;;;;;3.42;1.10;;;;;;;;;;5071646;28;20032;-73
2022/07/06 07:16:10;;;;;;;3.33;1.00;;;;;;;;;;5075564;28;20047;-73
2022/07/06 07:18:36;;;;;;;4.10;1.00;;;;;;;;;;5070628;28;20024;-73
2022/07/06 07:21:01;;;;;;;5.65;1.13;;;;;;;;;;5080590;28;20131;-73
2022/07/06 07:23:26;;;;;;;1.85;1.05;;;;;;;;;;5073958;28;20065;-73
2022/07/06 07:25:52;;;;;;;2.10;1.00;;;;;;;;;;5073803;28;20357;-73
2022/07/06 07:28:17;;;;;;;4.10;1.00;;;;;;;;;;5079944;28;20061;-73
2022/07/06 07:30:42;;;;;;;2.80;1.10;;;;;;;;;;5066449;28;20032;-73
2022/07/06 07:33:07;;;;;;;2.30;0.98;;;;;;;;;;5077818;28;20033;-73
2022/07/06 07:35:33;;;;;;;2.58;1.10;;;;;;;;;;5076093;28;20088;-71
2022/07/06 07:37:58;;;;;;;2.20;1.20;;;;;;;;;;5076238;28;20502;-72
2022/07/06 07:40:23;;;;;;;3.45;1.10;;;;;;;;;;5070564;28;20044;-72
2022/07/06 07:42:48;;;;;;;4.85;1.20;;;;;;;;;;5075533;28;20067;-72
2022/07/06 07:45:14;;;;;;;3.17;1.10;;;;;;;;;;5072932;28;20107;-72
2022/07/06 07:47:39;;;;;;;2.50;0.90;;;;;;;;;;5072444;28;20077;-72
2022/07/06 07:50:05;;;;;;;2.50;0.90;;;;;;;;;;5054334;28;20063;-71
2022/07/06 07:52:31;;;;;;;1.50;0.90;;;;;;;;;;5071284;28;20029;-72
2022/07/06 07:54:56;;;;;;;4.57;0.82;;;;;;;;;;5075506;28;20027;-72
2022/07/06 07:57:21;;;;;;;1.63;0.90;;;;;;;;;;5077193;28;20051;-72
2022/07/06 07:59:46;;;;;;;3.42;0.90;;;;;;;;;;5070875;28;20104;-72
2022/07/06 08:02:11;;;;;;;2.50;0.90;;;;;;;;;;5082858;28;20128;-73
2022/07/06 08:04:37;;;;;;;2.13;0.95;;;;;;;;;;5073314;28;20684;-72
2022/07/06 08:07:02;;;;;;;4.15;0.98;;;;;;;;;;5069601;28;20079;-71
2022/07/06 08:09:27;;;;;;;2.72;0.90;;;;;;;;;;5067935;28;20008;-72
2022/07/06 08:11:53;;;;;;;2.00;0.88;;;;;;;;;;5076830;28;20054;-72
2022/07/06 08:14:18;;;;;;;3.13;0.90;;;;;;;;;;5087257;28;20019;-72
2022/07/06 08:16:43;;;;;;;1.90;0.93;;;;;;;;;;5075640;28;20020;-72
2022/07/06 08:19:09;;;;;;;2.03;1.00;;;;;;;;;;5039815;28;20036;-72
2022/07/06 08:21:34;;;;;;;1.65;0.73;;;;;;;;;;5049565;28;20146;-72
2022/07/06 08:24:00;;;;;;;1.85;0.80;;;;;;;;;;5073454;28;20363;-72
2022/07/06 08:26:25;;;;;;;2.88;0.93;;;;;;;;;;5072190;28;20048;-72
2022/07/06 08:28:51;;;;;;;1.80;0.88;;;;;;;;;;5059067;28;20897;-72
2022/07/06 08:31:16;;;;;;;4.20;1.00;;;;;;;;;;5080575;28;20052;-72
2022/07/06 08:33:41;;;;;;;1.83;0.90;;;;;;;;;;5073239;28;20062;-72
2022/07/06 08:36:07;;;;;;;4.70;0.80;;;;;;;;;;5072037;28;20031;-72
2022/07/06 08:38:32;;;;;;;1.95;0.88;;;;;;;;;;5077352;28;20123;-72
2022/07/06 08:40:57;;;;;;;2.13;0.90;;;;;;;;;;5084800;28;20131;-72
2022/07/06 08:43:23;;;;;;;2.13;0.93;;;;;;;;;;5072588;28;20012;-73
2022/07/06 08:45:49;;;;;;;3.38;0.95;;;;;;;;;;5071394;28;20120;-72
2022/07/06 08:48:15;;;;;;;1.80;0.80;;;;;;;;;;5080135;28;20032;-72
2022/07/06 08:50:40;;;;;;;2.22;0.90;;;;;;;;;;5084805;28;20423;-72
2022/07/06 08:53:06;;;;;;;3.58;1.02;;;;;;;;;;5081237;28;20534;-72
2022/07/06 08:55:32;;;;;;;1.95;0.70;;;;;;;;;;5076930;28;20033;-72
2022/07/06 08:57:57;;;;;;;1.38;0.77;;;;;;;;;;5073896;28;20414;-72
2022/07/06 09:00:24;;;;;;;0.95;0.70;;;;;;;;;;5072411;28;20070;-72
2022/07/06 09:02:50;;;;;;;1.75;0.90;;;;;;;;;;5072921;28;20033;-73
2022/07/06 09:05:16;;;;;;;1.70;0.80;;;;;;;;;;5070887;28;20097;-73
2022/07/06 09:07:43;;;;;;;1.77;0.70;;;;;;;;;;5075985;28;20048;-72
2022/07/06 09:10:08;;;;;;;1.40;0.80;;;;;;;;;;5073902;28;20032;-73
2022/07/06 09:12:34;;;;;;;2.00;0.90;;;;;;;;;;5072323;28;20051;-73
2022/07/06 09:14:59;;;;;;;1.50;0.80;;;;;;;;;;5082452;28;20020;-73
2022/07/06 09:17:26;;;;;;;1.77;1.00;;;;;;;;;;5079374;28;20361;-73
2022/07/06 09:19:51;;;;;;;1.50;0.90;;;;;;;;;;5080957;28;20027;-73
2022/07/06 09:22:27;;;;;;;1.42;0.80;;;;;;;;;;5056284;28;20036;-73
2022/07/06 09:24:52;;;;;;;5.00;4.50;;;;;;;;;;5070723;28;20027;-74
2022/07/06 09:27:18;;;;;;;3.72;0.90;;;;;;;;;;5073383;28;20372;-74
2022/07/06 09:29:44;;;;;;;2.83;0.80;;;;;;;;;;5084665;28;20040;-74
2022/07/06 09:32:09;;;;;;;1.65;0.77;;;;;;;;;;5078746;28;20106;-74
2022/07/06 09:34:42;;;;;;;1.10;0.60;;;;;;;;;;5082588;28;20444;-73
2022/07/06 09:37:07;;;;;;;1.25;0.70;;;;;;;;;;5082954;28;20280;-73
2022/07/06 09:39:32;;;;;;;2.55;0.70;;;;;;;;;;5077323;28;20052;-74
2022/07/06 09:41:59;;;;;;;1.50;0.73;;;;;;;;;;5079895;28;20020;-73
2022/07/06 09:44:24;;;;;;;1.98;0.80;;;;;;;;;;5091007;28;20268;-72
2022/07/06 09:46:50;;;;;;;0.63;0.50;;;;;;;;;;5087392;28;20020;-72
2022/07/06 09:49:21;;;;;;;1.05;0.60;;;;;;;;;;5093391;28;20244;-72
2022/07/06 09:51:47;;;;;;;1.23;0.70;;;;;;;;;;5086562;28;20287;-73
2022/07/06 09:54:12;;;;;;;1.38;0.68;;;;;;;;;;5082765;28;20051;-72
2022/07/06 09:56:38;;;;;;;1.00;0.60;;;;;;;;;;5066961;28;20482;-73
2022/07/06 09:59:14;;;;;;;0.52;0.47;;;;;;;;;;5087337;28;20073;-72
2022/07/06 10:01:40;;;;;;;1.88;0.70;;;;;;;;;;5079876;28;20046;-72
2022/07/06 10:04:08;;;;;;;0.95;0.60;;;;;;;;;;5082219;28;20028;-72
2022/07/06 10:06:33;;;;;;;3.35;0.77;;;;;;;;;;5074914;28;20047;-71
2022/07/06 10:08:59;;;;;;;1.08;0.60;;;;;;;;;;5082494;28;20059;-72
2022/07/06 10:11:24;;;;;;;1.90;0.80;;;;;;;;;;5082571;28;20074;-71
2022/07/06 10:13:54;;;;;;;2.00;0.60;;;;;;;;;;5077118;28;20023;-72
2022/07/06 10:16:19;;;;;;;2.22;0.85;;;;;;;;;;5079357;28;20036;-71
2022/07/06 10:18:45;;;;;;;6.57;0.75;;;;;;;;;;5080291;28;20035;-71
2022/07/06 10:21:11;;;;;;;1.58;0.75;;;;;;;;;;5080382;28;20025;-71
2022/07/06 10:23:36;;;;;;;1.40;0.70;;;;;;;;;;5084764;28;20032;-71
2022/07/06 10:26:01;;;;;;;2.13;0.80;;;;;;;;;;5086999;28;20032;-72
2022/07/06 10:28:27;;;;;;;1.83;0.70;;;;;;;;;;5085118;28;20027;-73
2022/07/06 10:30:52;;;;;;;1.88;0.80;;;;;;;;;;5091015;28;20028;-72
2022/07/06 10:33:18;;;;;;;2.00;0.90;;;;;;;;;;5086597;28;20063;-73
2022/07/06 10:35:44;;;;;;;1.98;0.90;;;;;;;;;;5084963;28;20432;-73
2022/07/06 10:38:10;;;;;;;2.03;0.80;;;;;;;;;;5089844;28;20367;-73
2022/07/06 10:43:22;;;;;;;1.60;0.80;;;;;;;;;;5072089;28;20122;-73
2022/07/06 10:45:48;;;;;;;1.67;0.80;;;;;;;;;;5092032;28;20064;-73
2022/07/06 10:48:15;;;;;;;3.70;0.70;;;;;;;;;;5093761;28;20095;-72
2022/07/06 10:50:41;;;;;;;1.10;0.70;;;;;;;;;;5083578;28;20051;-72
2022/07/06 10:53:13;;;;;;;1.20;0.80;;;;;;;;;;5090026;28;20032;-72
2022/07/06 10:55:50;;;;;;;2.67;1.17;;;;;;;;;;5080824;28;20097;-72
2022/07/06 10:58:33;;;;;;;1.55;0.80;;;;;;;;;;5075223;28;20142;-72
2022/07/06 11:01:00;;;;;;;1.35;0.70;;;;;;;;;;5069127;28;20564;-72
2022/07/06 11:03:39;;;;;;;1.25;0.65;;;;;;;;;;5080858;28;20038;-72
2022/07/06 11:06:07;;;;;;;1.27;0.70;;;;;;;;;;5064300;28;20029;-72
2022/07/06 11:08:45;;;;;;;2.30;0.90;;;;;;;;;;5065571;28;20399;-72
2022/07/06 11:11:11;;;;;;;1.05;0.70;;;;;;;;;;5081666;28;20041;-72
2022/07/06 11:13:42;;;;;;;2.03;0.90;;;;;;;;;;5088513;28;20375;-72
2022/07/06 11:16:07;;;;;;;1.67;0.80;;;;;;;;;;5078077;28;20147;-72
2022/07/06 11:18:39;;;;;;;1.70;0.70;;;;;;;;;;5083886;28;20060;-72
2022/07/06 11:21:20;;;;;;;1.25;0.65;;;;;;;;;;5078834;28;20025;-72
2022/07/06 11:23:47;;;;;;;2.00;0.93;;;;;;;;;;5063523;28;20047;-72
2022/07/06 11:26:12;;;;;;;1.15;0.60;;;;;;;;;;5087964;28;20103;-72
2022/07/06 11:28:38;;;;;;;2.20;0.60;;;;;;;;;;5082261;28;20119;-72
2022/07/06 11:31:03;;;;;;;1.58;0.82;;;;;;;;;;5085452;28;20036;-71
2022/07/06 11:33:32;;;;;;;1.20;0.70;;;;;;;;;;5057958;28;20028;-72
2022/07/06 11:36:17;;;;;;;1.55;0.75;;;;;;;;;;5084647;28;20386;-72
2022/07/06 11:38:43;;;;;;;1.83;0.60;;;;;;;;;;5088664;28;20056;-72
2022/07/06 11:41:08;;;;;;;1.55;0.70;;;;;;;;;;5086245;28;20384;-72
2022/07/06 11:43:34;;;;;;;0.70;0.50;;;;;;;;;;5087584;28;20020;-72
2022/07/06 11:45:59;;;;;;;0.77;0.60;;;;;;;;;;5075130;28;20056;-72
2022/07/06 11:48:24;;;;;;;0.80;0.60;;;;;;;;;;5076597;28;20570;-72
2022/07/06 11:51:03;;;;;;;0.80;0.50;;;;;;;;;;5085190;28;20090;-72
2022/07/06 11:53:28;;;;;;;1.73;0.70;;;;;;;;;;5074958;28;20017;-72
2022/07/06 11:55:54;;;;;;;1.58;0.80;;;;;;;;;;5083635;28;20024;-72
2022/07/06 11:58:22;;;;;;;1.20;0.60;;;;;;;;;;5081229;28;20418;-72
2022/07/06 12:01:14;;;;;;;0.65;0.60;;;;;;;;;;5074295;28;20434;-72
2022/07/06 12:03:40;;;;;;;3.05;0.80;;;;;;;;;;5061243;28;20040;-72
2022/07/06 12:06:06;;;;;;;2.45;0.70;;;;;;;;;;5076891;28;20028;-72
2022/07/06 12:08:33;;;;;;;4.05;0.70;;;;;;;;;;5092686;28;20390;-72
2022/07/06 12:10:58;;;;;;;0.75;0.60;;;;;;;;;;5080408;28;20020;-72
2022/07/06 12:13:24;;;;;;;0.77;0.60;;;;;;;;;;5089491;28;20099;-72
2022/07/06 12:15:49;;;;;;;1.13;0.60;;;;;;;;;;5088192;28;20028;-72
2022/07/06 12:18:14;;;;;;;0.88;0.57;;;;;;;;;;5087237;28;20380;-72
2022/07/06 12:20:40;;;;;;;2.08;0.60;;;;;;;;;;5084312;28;20031;-72
2022/07/06 12:23:05;;;;;;;0.68;0.50;;;;;;;;;;5089522;28;20036;-72
2022/07/06 12:25:31;;;;;;;0.95;0.60;;;;;;;;;;5088729;28;20357;-72
2022/07/06 12:27:56;;;;;;;0.40;0.40;;;;;;;;;;5078876;28;20416;-72
2022/07/06 12:30:22;;;;;;;1.27;0.60;;;;;;;;;;5081190;28;20372;-72
2022/07/06 12:32:47;;;;;;;1.55;0.60;;;;;;;;;;5076282;28;20054;-72
2022/07/06 12:35:12;;;;;;;0.63;0.47;;;;;;;;;;5073039;28;20126;-71
2022/07/06 12:37:38;;;;;;;1.52;0.50;;;;;;;;;;5075126;28;20044;-71
2022/07/06 12:40:13;;;;;;;4.00;0.50;;;;;;;;;;5079579;28;20501;-72
2022/07/06 12:42:47;;;;;;;0.90;0.60;;;;;;;;;;5080317;28;20052;-72
2022/07/06 12:45:13;;;;;;;0.93;0.50;;;;;;;;;;5082677;28;20051;-71
2022/07/06 12:47:42;;;;;;;1.10;0.50;;;;;;;;;;5086430;28;20488;-71
2022/07/06 12:50:09;;;;;;;1.17;0.60;;;;;;;;;;5089612;28;20038;-72
2022/07/06 12:52:36;;;;;;;1.38;0.60;;;;;;;;;;5086614;28;20032;-71
2022/07/06 12:55:01;;;;;;;1.23;0.60;;;;;;;;;;5083129;28;20434;-72
2022/07/06 12:57:27;;;;;;;1.33;0.57;;;;;;;;;;5087233;28;20038;-71
2022/07/06 12:59:52;;;;;;;1.38;0.65;;;;;;;;;;5086032;28;20097;-71
2022/07/06 13:02:18;;;;;;;1.05;0.50;;;;;;;;;;5086898;28;20063;-72
2022/07/06 13:04:43;;;;;;;0.77;0.45;;;;;;;;;;5084625;28;20068;-72
2022/07/06 13:07:18;;;;;;;3.83;0.70;;;;;;;;;;5082986;28;20023;-71
2022/07/06 13:09:44;;;;;;;1.33;0.60;;;;;;;;;;5079924;28;20020;-71
2022/07/06 13:12:09;;;;;;;0.88;0.60;;;;;;;;;;5079471;28;20040;-72
2022/07/06 13:14:34;;;;;;;2.00;0.75;;;;;;;;;;5075408;28;20099;-72
2022/07/06 13:16:59;;;;;;;1.08;0.50;;;;;;;;;;5078643;28;20025;-71
2022/07/06 13:19:25;;;;;;;1.63;0.77;;;;;;;;;;5078366;28;20028;-71
2022/07/06 13:21:50;;;;;;;1.20;0.70;;;;;;;;;;5078768;28;20070;-71
2022/07/06 13:24:15;;;;;;;1.15;0.70;;;;;;;;;;5080631;28;20452;-71
2022/07/06 13:26:41;;;;;;;3.92;0.70;;;;;;;;;;5078670;28;20081;-71
2022/07/06 13:29:06;;;;;;;1.13;0.60;;;;;;;;;;5076063;28;20025;-71
2022/07/06 13:31:31;;;;;;;1.15;0.70;;;;;;;;;;5078461;28;20115;-71
2022/07/06 13:33:57;;;;;;;1.42;0.63;;;;;;;;;;5078386;28;20032;-72
2022/07/06 13:36:25;;;;;;;2.47;0.60;;;;;;;;;;5087621;28;20102;-71
2022/07/06 13:38:50;;;;;;;2.45;0.73;;;;;;;;;;5081539;28;20395;-71
2022/07/06 13:41:15;;;;;;;1.75;0.70;;;;;;;;;;5088380;28;20035;-71
2022/07/06 13:43:41;;;;;;;2.47;0.88;;;;;;;;;;5089114;28;20375;-72
2022/07/06 13:46:07;;;;;;;0.90;0.60;;;;;;;;;;5073617;28;20029;-71
2022/07/06 13:48:32;;;;;;;1.30;0.65;;;;;;;;;;5077708;28;20039;-72
2022/07/06 13:50:58;;;;;;;2.80;0.82;;;;;;;;;;5083679;28;20028;-71
2022/07/06 13:53:23;;;;;;;1.00;0.70;;;;;;;;;;5085969;28;20098;-72
2022/07/06 13:55:48;;;;;;;1.67;0.70;;;;;;;;;;5075023;28;20039;-72
2022/07/06 13:58:14;;;;;;;1.27;0.63;;;;;;;;;;5080689;28;20103;-72
2022/07/06 14:00:39;;;;;;;1.85;0.60;;;;;;;;;;5088189;28;20111;-71
2022/07/06 14:03:04;;;;;;;1.50;0.65;;;;;;;;;;5087292;28;20048;-72
2022/07/06 14:05:30;;;;;;;1.33;0.80;;;;;;;;;;5089175;28;20056;-72
2022/07/06 14:07:55;;;;;;;2.10;0.82;;;;;;;;;;5087533;28;20029;-72
2022/07/06 14:10:20;;;;;;;2.35;1.00;;;;;;;;;;5078909;28;20036;-71
2022/07/06 14:12:46;;;;;;;1.75;0.80;;;;;;;;;;5081628;28;20383;-71
2022/07/06 14:15:11;;;;;;;1.83;0.80;;;;;;;;;;5075735;28;20109;-72
2022/07/06 14:17:36;;;;;;;1.00;0.68;;;;;;;;;;5080432;28;20430;-71
2022/07/06 14:20:02;;;;;;;4.22;0.80;;;;;;;;;;5078713;28;20023;-72
2022/07/06 14:22:27;;;;;;;1.88;0.80;;;;;;;;;;5088607;28;20146;-72
2022/07/06 14:24:52;;;;;;;2.58;0.98;;;;;;;;;;5078375;28;20078;-71
2022/07/06 14:27:17;;;;;;;1.23;0.77;;;;;;;;;;5087959;28;20031;-72
2022/07/06 14:29:43;;;;;;;0.70;0.60;;;;;;;;;;5091182;28;20036;-72
2022/07/06 14:32:08;;;;;;;2.58;0.70;;;;;;;;;;5087363;28;20078;-72
2022/07/06 14:34:33;;;;;;;2.45;0.80;;;;;;;;;;5089601;28;20020;-72
2022/07/06 14:36:59;;;;;;;3.58;1.70;;;;;;;;;;5086723;28;20115;-72
2022/07/06 14:39:24;;;;;;;2.05;0.82;;;;;;;;;;5083444;28;20075;-72
2022/07/06 14:41:49;;;;;;;1.58;0.82;;;;;;;;;;5083943;28;20036;-72